Time;durP1;ratioP1;P1;durP2;ratioP2;P2;SDS_P1;SDS_P2;PMS_P1;PMS_P2;Temp;Humidity;BMP_temperature;BMP_pressure;BME280_temperature;BME280_humidity;BME280_pressure;Samples;Min_cycle;Max_cycle;Signal;HPM_P1;HPM_P2
2022/08/06 00:00:39;;;;;;;3.80;0.70;;;14.80;99.90;;;;;;12421098;28;20050;-83
2022/08/06 00:06:45;;;;;;;4.10;0.55;;;14.70;99.90;;;;;;12412710;28;20065;-83
2022/08/06 00:12:47;;;;;;;3.53;0.70;;;14.60;99.90;;;;;;12429034;28;20136;-83
2022/08/06 00:18:50;;;;;;;3.15;0.80;;;14.70;99.90;;;;;;12424110;28;20078;-86
2022/08/06 00:24:52;;;;;;;1.83;0.60;;;14.60;99.90;;;;;;12437739;28;20072;-84
2022/08/06 00:30:56;;;;;;;4.20;0.43;;;14.50;99.90;;;;;;12416402;28;20046;-83
2022/08/06 00:36:58;;;;;;;5.65;0.80;;;14.30;99.90;;;;;;12420472;28;20137;-83
2022/08/06 00:43:03;;;;;;;6.25;0.88;;;14.20;99.90;;;;;;12434974;28;20068;-83
2022/08/06 00:49:10;;;;;;;1.73;0.68;;;14.20;99.90;;;;;;12421970;28;20046;-83
2022/08/06 00:55:13;;;;;;;1.10;0.52;;;14.20;99.90;;;;;;12419362;28;20050;-83
2022/08/06 01:01:18;;;;;;;2.00;0.57;;;14.10;99.90;;;;;;12419766;28;20034;-84
2022/08/06 01:07:20;;;;;;;2.10;0.70;;;14.00;99.90;;;;;;12426970;28;20061;-83
2022/08/06 01:13:22;;;;;;;3.42;0.80;;;13.90;99.90;;;;;;12424275;28;20046;-84
2022/08/06 01:19:56;;;;;;;4.05;0.90;;;13.70;99.90;;;;;;12434562;28;20049;-84
2022/08/06 01:26:59;;;;;;;3.92;0.80;;;13.70;99.90;;;;;;12425349;28;20557;-83
2022/08/06 01:33:05;;;;;;;4.63;0.90;;;13.90;99.90;;;;;;12425203;28;20099;-83
2022/08/06 01:39:20;;;;;;;3.80;0.82;;;14.10;99.90;;;;;;12433300;28;20050;-83
2022/08/06 01:45:43;;;;;;;3.08;0.70;;;14.30;99.90;;;;;;12421274;28;20046;-83
2022/08/06 01:51:58;;;;;;;;;;;14.30;99.90;;;;;;12417827;28;20123;-83
2022/08/06 01:58:20;;;;;;;2.13;0.60;;;14.10;99.90;;;;;;12420546;28;20349;-83
2022/08/06 02:04:32;;;;;;;;;;;14.10;99.90;;;;;;12422077;28;20091;-83
2022/08/06 02:10:41;;;;;;;3.20;0.75;;;14.00;99.90;;;;;;12422734;28;19921;-83
2022/08/06 02:16:44;;;;;;;7.93;1.10;;;14.00;99.90;;;;;;12437317;28;20253;-84
2022/08/06 02:22:48;;;;;;;5.20;0.97;;;13.80;99.90;;;;;;12414158;28;20045;-83
2022/08/06 02:28:53;;;;;;;4.13;0.98;;;13.80;99.90;;;;;;12428936;28;20105;-82
2022/08/06 02:34:55;;;;;;;2.42;0.88;;;13.70;99.90;;;;;;12427987;28;20473;-83
2022/08/06 02:41:45;;;;;;;2.42;1.10;;;13.50;99.90;;;;;;12417579;28;20046;-82
2022/08/06 02:48:10;;;;;;;6.75;1.17;;;13.50;99.90;;;;;;12385096;28;20050;-83
2022/08/06 02:54:22;;;;;;;6.65;1.20;;;13.50;99.90;;;;;;12449409;28;20092;-83
2022/08/06 03:00:27;;;;;;;4.38;1.10;;;13.40;99.90;;;;;;12416949;28;20073;-83
2022/08/06 03:06:33;;;;;;;2.42;1.00;;;13.30;99.90;;;;;;12430389;28;20138;-82
2022/08/06 03:12:37;;;;;;;2.22;1.10;;;13.30;99.90;;;;;;12421908;28;20537;-83
2022/08/06 03:18:42;;;;;;;2.97;1.50;;;13.20;99.90;;;;;;12420108;28;20552;-83
2022/08/06 03:24:45;;;;;;;4.50;1.33;;;13.20;99.90;;;;;;12429488;28;20045;-83
2022/08/06 03:30:48;;;;;;;2.83;1.25;;;13.30;99.90;;;;;;12411885;28;20046;-83
2022/08/06 03:36:57;;;;;;;3.70;1.25;;;13.30;99.90;;;;;;12408338;28;20124;-82
2022/08/06 03:43:01;;;;;;;3.55;1.30;;;13.40;99.90;;;;;;12440871;28;20141;-83
2022/08/06 03:49:12;;;;;;;3.67;1.45;;;13.30;99.90;;;;;;12414518;28;20054;-83
2022/08/06 03:55:21;;;;;;;2.03;1.30;;;13.30;99.90;;;;;;12419248;28;20494;-83
2022/08/06 04:01:27;;;;;;;3.72;1.48;;;13.30;99.90;;;;;;12425413;28;20045;-83
2022/08/06 04:07:31;;;;;;;2.53;1.30;;;13.40;99.90;;;;;;12440368;28;20056;-83
2022/08/06 04:13:54;;;;;;;3.33;1.42;;;13.50;99.90;;;;;;12425993;28;20046;-83
2022/08/06 04:20:16;;;;;;;3.17;1.40;;;13.50;99.90;;;;;;12420250;28;20509;-83
2022/08/06 04:26:39;;;;;;;3.35;1.40;;;13.50;99.90;;;;;;12419522;28;20061;-83
2022/08/06 04:32:45;;;;;;;2.60;1.30;;;13.50;99.90;;;;;;12424685;28;20126;-83
2022/08/06 04:39:02;;;;;;;3.00;1.27;;;13.60;99.90;;;;;;12438798;28;20050;-83
2022/08/06 04:45:10;;;;;;;2.50;1.30;;;13.60;99.90;;;;;;12436271;28;20057;-83
2022/08/06 04:51:34;;;;;;;3.47;1.40;;;13.60;99.90;;;;;;12427333;28;20120;-83
2022/08/06 04:57:56;;;;;;;4.13;1.65;;;13.50;99.90;;;;;;12431264;28;20058;-82
2022/08/06 05:04:08;;;;;;;3.40;1.70;;;13.60;99.90;;;;;;12420322;28;20493;-83
2022/08/06 05:10:16;;;;;;;4.63;1.90;;;13.50;99.90;;;;;;12405679;28;20057;-83
2022/08/06 05:16:20;;;;;;;4.47;1.90;;;13.50;99.90;;;;;;12418558;28;20522;-83
2022/08/06 05:22:27;;;;;;;5.55;1.92;;;13.60;99.90;;;;;;12424250;28;20054;-83
2022/08/06 05:28:49;;;;;;;3.42;1.80;;;13.60;99.90;;;;;;12421806;28;20046;-83
2022/08/06 05:34:52;;;;;;;9.32;2.85;;;13.20;99.90;;;;;;12420309;28;20137;-84
2022/08/06 05:40:58;;;;;;;3.33;1.92;;;13.10;99.90;;;;;;12452612;28;20077;-83
2022/08/06 05:47:13;;;;;;;4.88;2.22;;;13.30;99.90;;;;;;12428119;28;20047;-83
2022/08/06 05:53:21;;;;;;;6.80;2.03;;;13.30;99.90;;;;;;12407506;28;20081;-83
2022/08/06 05:59:50;;;;;;;4.22;1.80;;;13.20;99.90;;;;;;12414234;28;20057;-83
2022/08/06 06:06:00;;;;;;;4.68;2.00;;;13.50;99.90;;;;;;12417810;28;20066;-83
2022/08/06 06:12:18;;;;;;;3.42;1.98;;;13.70;99.90;;;;;;12444823;28;20130;-83
2022/08/06 06:18:51;;;;;;;6.88;1.80;;;13.60;99.90;;;;;;12414384;28;20050;-84
2022/08/06 06:25:06;;;;;;;;;;;13.90;99.90;;;;;;12413265;28;20117;-83
2022/08/06 06:31:26;;;;;;;4.10;1.48;;;14.00;99.90;;;;;;12442072;28;19971;-83
2022/08/06 06:38:25;;;;;;;5.75;2.08;;;14.00;99.90;;;;;;12429111;28;20050;-84
2022/08/06 06:44:42;;;;;;;4.47;1.42;;;14.30;99.90;;;;;;12438421;28;20425;-84
2022/08/06 06:51:09;;;;;;;3.60;1.10;;;14.30;99.90;;;;;;12414233;28;20485;-83
2022/08/06 06:57:35;;;;;;;5.13;0.98;;;14.40;99.90;;;;;;12417158;28;20416;-83
2022/08/06 07:03:48;;;;;;;4.20;0.93;;;14.30;99.90;;;;;;12433809;28;20064;-83
2022/08/06 07:09:53;;;;;;;;;;;14.60;99.90;;;;;;12416940;28;20051;-83
2022/08/06 07:16:05;;;;;;;2.58;0.60;;;14.80;99.90;;;;;;12412062;28;19932;-82
2022/08/06 07:22:08;;;;;;;3.13;1.20;;;14.80;99.90;;;;;;12416137;28;20528;-83
2022/08/06 07:28:14;;;;;;;1.25;0.50;;;15.00;99.90;;;;;;12417802;28;20049;-83
2022/08/06 07:34:22;;;;;;;3.13;0.82;;;15.10;99.90;;;;;;12413952;28;20061;-83
2022/08/06 07:40:29;;;;;;;0.98;0.50;;;15.20;99.90;;;;;;12417182;28;20098;-84
2022/08/06 07:46:37;;;;;;;2.17;0.60;;;15.10;99.90;;;;;;12414806;28;20081;-83
2022/08/06 07:52:41;;;;;;;2.08;0.40;;;15.40;99.90;;;;;;12414638;28;20513;-83
2022/08/06 07:58:45;;;;;;;0.77;0.38;;;15.60;99.90;;;;;;12411055;28;20482;-82
2022/08/06 08:11:08;;;;;;;1.20;0.40;;;15.70;99.90;;;;;;12427999;28;20050;-84
2022/08/06 08:17:12;;;;;;;4.80;0.63;;;15.80;99.90;;;;;;12414506;28;20057;-83
2022/08/06 08:23:16;;;;;;;2.10;0.50;;;15.70;99.90;;;;;;12415175;28;20050;-84
2022/08/06 08:29:39;;;;;;;1.90;0.30;;;16.00;99.90;;;;;;12430507;28;20052;-82
2022/08/06 08:35:56;;;;;;;1.83;0.40;;;16.10;99.90;;;;;;12402843;28;20054;-82
2022/08/06 08:42:14;;;;;;;0.63;0.30;;;16.30;99.90;;;;;;12438525;28;20046;-83
2022/08/06 08:48:30;;;;;;;3.15;0.35;;;16.40;99.90;;;;;;12411692;28;20054;-82
2022/08/06 08:54:36;;;;;;;1.90;0.40;;;16.60;99.90;;;;;;12424896;28;20107;-83
2022/08/06 09:00:41;;;;;;;0.63;0.40;;;16.70;99.90;;;;;;12425638;28;20046;-84
2022/08/06 09:06:51;;;;;;;1.27;0.47;;;16.80;99.90;;;;;;12417689;28;20548;-83
2022/08/06 09:12:53;;;;;;;2.15;0.30;;;17.00;99.90;;;;;;12419309;28;20050;-84
2022/08/06 09:18:57;;;;;;;;;;;17.10;99.90;;;;;;12423270;28;20054;-83
2022/08/06 09:25:01;;;;;;;0.68;0.20;;;17.20;99.90;;;;;;12425120;28;19928;-83
2022/08/06 09:31:14;;;;;;;0.40;0.22;;;17.20;99.90;;;;;;12413384;28;20849;-83
2022/08/06 09:37:31;;;;;;;1.35;0.28;;;17.60;99.90;;;;;;12415946;28;20503;-84
2022/08/06 09:43:55;;;;;;;4.40;0.50;;;17.80;99.90;;;;;;12414611;28;20057;-84
2022/08/06 09:50:06;;;;;;;0.50;0.20;;;17.90;99.90;;;;;;12423188;28;20102;-84
2022/08/06 09:56:16;;;;;;;0.55;0.30;;;17.90;99.90;;;;;;12422045;28;20070;-85
2022/08/06 10:02:19;;;;;;;2.60;0.40;;;18.20;99.90;;;;;;12435044;28;20045;-83
2022/08/06 10:08:32;;;;;;;1.67;0.50;;;18.50;99.90;;;;;;12433483;28;20088;-83
2022/08/06 10:14:34;;;;;;;3.22;0.50;;;18.50;99.90;;;;;;12416138;28;20069;-84
2022/08/06 10:20:36;;;;;;;1.13;0.38;;;18.20;99.90;;;;;;12416107;28;20506;-83
2022/08/06 10:26:47;;;;;;;1.35;0.32;;;17.80;99.90;;;;;;12426607;28;20482;-83
2022/08/06 10:32:55;;;;;;;0.50;0.30;;;18.00;99.90;;;;;;12413598;28;20042;-83
2022/08/06 10:39:02;;;;;;;3.67;0.40;;;18.40;99.90;;;;;;12411130;28;20046;-84
2022/08/06 10:45:23;;;;;;;;;;;18.80;99.90;;;;;;12411879;28;20390;-84
2022/08/06 10:51:28;;;;;;;2.80;0.38;;;18.90;99.90;;;;;;12427280;28;19909;-83
2022/08/06 10:57:50;;;;;;;2.05;0.57;;;18.90;99.90;;;;;;12424579;28;20083;-84
2022/08/06 11:04:05;;;;;;;;;;;19.10;99.90;;;;;;12411864;28;20049;-83
2022/08/06 11:10:39;;;;;;;1.45;0.25;;;19.00;99.90;;;;;;12420754;28;19922;-84
2022/08/06 11:16:52;;;;;;;0.88;0.30;;;19.30;99.90;;;;;;12441762;28;20060;-83
2022/08/06 11:22:55;;;;;;;1.42;0.40;;;19.60;99.90;;;;;;12405599;28;20042;-83
2022/08/06 11:29:01;;;;;;;1.30;0.28;;;19.70;99.90;;;;;;12413879;28;20049;-83
2022/08/06 11:35:35;;;;;;;0.43;0.20;;;19.90;99.90;;;;;;12413182;28;20593;-84
2022/08/06 11:41:56;;;;;;;0.38;0.20;;;20.30;99.90;;;;;;12413711;28;20419;-84
2022/08/06 11:48:06;;;;;;;1.42;0.40;;;20.20;99.90;;;;;;12447525;28;20061;-83
2022/08/06 11:54:32;;;;;;;2.45;0.32;;;20.00;99.90;;;;;;12413001;28;20134;-84
2022/08/06 12:00:55;;;;;;;2.90;0.32;;;19.20;99.90;;;;;;12409741;28;20132;-83
2022/08/06 12:07:25;;;;;;;0.43;0.10;;;18.80;99.90;;;;;;12410419;28;20050;-84
2022/08/06 12:13:38;;;;;;;1.52;0.20;;;19.20;99.90;;;;;;12424093;28;20152;-84
2022/08/06 12:20:03;;;;;;;0.77;0.30;;;20.20;99.90;;;;;;12417826;28;20062;-83
2022/08/06 12:26:08;;;;;;;1.90;0.20;;;20.90;99.90;;;;;;12432310;28;21897;-84
2022/08/06 12:32:21;;;;;;;0.57;0.17;;;20.70;99.90;;;;;;12420124;28;20061;-85
2022/08/06 12:38:30;;;;;;;1.75;0.40;;;20.80;99.90;;;;;;12426664;28;20080;-84
2022/08/06 12:44:32;;;;;;;0.90;0.20;;;21.00;99.90;;;;;;12416818;28;20144;-84
2022/08/06 12:51:09;;;;;;;1.33;0.30;;;21.40;99.90;;;;;;12447127;28;20046;-84
2022/08/06 12:57:24;;;;;;;0.17;0.10;;;21.40;99.90;;;;;;12415735;28;20056;-84
2022/08/06 13:03:49;;;;;;;2.15;0.40;;;21.60;99.90;;;;;;12417973;28;20056;-84
2022/08/06 13:10:12;;;;;;;1.83;0.32;;;21.60;99.90;;;;;;12419544;28;20062;-84
2022/08/06 13:16:38;;;;;;;0.68;0.20;;;21.10;99.90;;;;;;12418939;28;20128;-84
2022/08/06 13:22:54;;;;;;;0.75;0.20;;;20.30;99.90;;;;;;12419571;28;20402;-84
2022/08/06 13:29:14;;;;;;;2.90;0.30;;;20.70;99.90;;;;;;12411341;28;20129;-84
2022/08/06 13:35:36;;;;;;;1.25;0.20;;;21.50;99.90;;;;;;12413262;28;20081;-84
2022/08/06 13:41:38;;;;;;;1.02;0.50;;;21.80;99.90;;;;;;12429277;28;20087;-84
2022/08/06 13:47:40;;;;;;;0.85;0.30;;;22.20;99.90;;;;;;12415532;28;20381;-84
2022/08/06 13:53:59;;;;;;;1.23;0.38;;;21.80;99.90;;;;;;12423734;28;20103;-84
2022/08/06 14:00:20;;;;;;;2.15;0.68;;;21.50;99.90;;;;;;12410835;28;20083;-84
2022/08/06 14:06:22;;;;;;;0.73;0.37;;;21.30;99.90;;;;;;12414294;28;20549;-84
2022/08/06 14:12:24;;;;;;;0.73;0.20;;;21.70;99.90;;;;;;12431604;28;20050;-84
2022/08/06 14:18:30;;;;;;;0.68;0.20;;;21.30;99.90;;;;;;12410351;28;20070;-84
2022/08/06 14:24:40;;;;;;;1.52;0.50;;;21.10;99.90;;;;;;12416859;28;20558;-84
2022/08/06 14:30:54;;;;;;;1.88;0.20;;;21.10;99.90;;;;;;12417341;28;20054;-84
2022/08/06 14:36:56;;;;;;;2.60;0.35;;;20.50;99.90;;;;;;12413189;28;20058;-84
2022/08/06 14:49:21;;;;;;;2.67;0.40;;;20.00;99.90;;;;;;12424419;28;20074;-84
2022/08/06 14:55:23;;;;;;;1.92;0.57;;;20.20;99.90;;;;;;12432330;28;20085;-83
2022/08/06 15:01:26;;;;;;;2.67;0.43;;;20.10;99.90;;;;;;12406455;28;20046;-83
2022/08/06 15:07:38;;;;;;;1.17;0.28;;;20.00;99.90;;;;;;12410989;28;20422;-84
2022/08/06 15:13:42;;;;;;;0.65;0.25;;;19.90;99.90;;;;;;12419245;28;20038;-84
2022/08/06 15:19:52;;;;;;;0.40;0.20;;;19.80;99.90;;;;;;12421182;28;20101;-84
2022/08/06 15:25:55;;;;;;;;;;;20.40;99.90;;;;;;12434848;28;20049;-84
2022/08/06 15:32:17;;;;;;;2.80;0.40;;;21.00;99.90;;;;;;12410951;28;19932;-84
2022/08/06 15:38:19;;;;;;;1.05;0.30;;;21.40;99.90;;;;;;12418157;28;20101;-84
2022/08/06 15:44:23;;;;;;;0.13;0.10;;;21.70;99.90;;;;;;12411381;28;20058;-84
2022/08/06 15:50:43;;;;;;;2.95;0.30;;;21.80;99.90;;;;;;12411753;28;20046;-84
2022/08/06 15:57:05;;;;;;;1.10;0.40;;;22.10;99.90;;;;;;12423649;28;20077;-84
2022/08/06 16:03:18;;;;;;;0.40;0.30;;;22.20;99.90;;;;;;12419856;28;20062;-84
2022/08/06 16:09:21;;;;;;;1.85;0.30;;;22.30;99.90;;;;;;12413905;28;20057;-85
2022/08/06 16:15:29;;;;;;;4.25;0.40;;;21.80;99.90;;;;;;12421830;28;20069;-86
2022/08/06 16:21:37;;;;;;;2.58;0.30;;;21.80;99.90;;;;;;12428811;28;20425;-84
2022/08/06 16:27:40;;;;;;;0.95;0.30;;;22.10;99.90;;;;;;12407942;28;20050;-84
2022/08/06 16:33:42;;;;;;;0.65;0.10;;;22.30;99.90;;;;;;12407403;28;20096;-84
2022/08/06 16:39:55;;;;;;;1.75;0.35;;;22.60;99.90;;;;;;12413675;28;20509;-84
2022/08/06 16:46:01;;;;;;;1.17;0.30;;;22.80;99.90;;;;;;12413148;28;20037;-84
2022/08/06 16:52:04;;;;;;;2.65;0.65;;;22.70;99.90;;;;;;12410212;28;20061;-84
2022/08/06 16:58:26;;;;;;;4.82;0.60;;;22.00;99.90;;;;;;12413576;28;20046;-83
2022/08/06 17:04:48;;;;;;;1.98;0.50;;;21.60;99.90;;;;;;12422450;28;20057;-84
2022/08/06 17:10:50;;;;;;;2.13;0.47;;;21.40;99.90;;;;;;12419298;28;20046;-84
2022/08/06 17:17:03;;;;;;;1.73;0.40;;;21.00;99.90;;;;;;12421392;28;20470;-84
2022/08/06 17:23:07;;;;;;;3.60;0.50;;;20.70;99.90;;;;;;12428072;28;20054;-84
2022/08/06 17:29:11;;;;;;;2.13;0.55;;;20.30;99.90;;;;;;12415362;28;20116;-84
2022/08/06 17:35:15;;;;;;;2.22;0.40;;;20.10;99.90;;;;;;12417275;28;20120;-83
2022/08/06 17:41:17;;;;;;;2.03;0.47;;;20.50;99.90;;;;;;12456419;28;20057;-84
2022/08/06 17:47:19;;;;;;;2.53;0.55;;;20.90;99.90;;;;;;12414980;28;20054;-84
2022/08/06 17:53:21;;;;;;;1.58;0.52;;;21.20;99.90;;;;;;12426805;28;20502;-84
2022/08/06 17:59:23;;;;;;;1.88;0.40;;;21.40;99.90;;;;;;12422573;28;20096;-85
2022/08/06 18:05:32;;;;;;;1.33;0.50;;;21.60;99.90;;;;;;12405599;28;20052;-85
2022/08/06 18:11:38;;;;;;;2.63;0.30;;;21.50;99.90;;;;;;12426202;28;20493;-84
2022/08/06 18:17:41;;;;;;;2.70;0.38;;;20.90;99.90;;;;;;12413885;28;20050;-84
2022/08/06 18:24:04;;;;;;;0.82;0.35;;;20.50;99.90;;;;;;12416990;28;20054;-85
2022/08/06 18:30:12;;;;;;;1.20;0.50;;;20.20;99.90;;;;;;12418804;28;20050;-84
2022/08/06 18:36:34;;;;;;;1.70;0.55;;;20.00;99.90;;;;;;12427401;28;20050;-84
2022/08/06 18:42:37;;;;;;;0.80;0.43;;;19.70;99.90;;;;;;12412010;28;20054;-84
2022/08/06 18:48:46;;;;;;;2.85;0.57;;;19.50;99.90;;;;;;12412663;28;20057;-84
2022/08/06 18:54:54;;;;;;;1.33;0.67;;;19.30;99.90;;;;;;12407401;28;20057;-84
2022/08/06 19:00:57;;;;;;;1.05;0.43;;;19.10;99.90;;;;;;12409229;28;20041;-84
2022/08/06 19:07:02;;;;;;;3.80;0.75;;;19.00;99.90;;;;;;12428560;28;20069;-84
2022/08/06 19:13:06;;;;;;;3.25;0.60;;;18.90;99.90;;;;;;12415760;28;20155;-84
2022/08/06 19:19:11;;;;;;;4.10;0.60;;;18.70;99.90;;;;;;12415833;28;20058;-84
2022/08/06 19:25:14;;;;;;;1.38;0.50;;;18.60;99.90;;;;;;12422781;28;20041;-84
2022/08/06 19:31:17;;;;;;;2.78;0.70;;;18.50;99.90;;;;;;12422471;28;20464;-84
2022/08/06 19:37:24;;;;;;;1.67;0.60;;;18.30;99.90;;;;;;12418168;28;20050;-84
2022/08/06 19:43:46;;;;;;;3.15;0.70;;;18.20;99.90;;;;;;12413068;28;20046;-84
2022/08/06 19:50:07;;;;;;;2.45;0.70;;;18.10;99.90;;;;;;12411794;28;20053;-84
2022/08/06 19:56:13;;;;;;;1.17;0.52;;;17.80;99.90;;;;;;12432468;28;20053;-83
2022/08/06 20:02:20;;;;;;;3.70;0.90;;;17.60;99.90;;;;;;12407240;28;20054;-84
2022/08/06 20:08:27;;;;;;;0.90;0.50;;;17.50;99.90;;;;;;12413766;28;20045;-84
2022/08/06 20:14:34;;;;;;;1.60;0.60;;;17.30;99.90;;;;;;12414904;28;20065;-83
2022/08/06 20:20:36;;;;;;;2.72;0.90;;;17.10;99.90;;;;;;12424520;28;20096;-85
2022/08/06 20:26:38;;;;;;;4.07;0.70;;;17.00;99.90;;;;;;12417793;28;20054;-83
2022/08/06 20:33:00;;;;;;;2.67;0.90;;;16.80;99.90;;;;;;12419993;28;20046;-83
2022/08/06 20:39:05;;;;;;;3.28;1.10;;;16.70;99.90;;;;;;12414721;28;20073;-84
2022/08/06 20:45:10;;;;;;;2.75;1.00;;;16.60;99.90;;;;;;12424152;28;20434;-84
2022/08/06 20:51:25;;;;;;;2.78;0.77;;;16.60;99.90;;;;;;12415848;28;20045;-83
2022/08/06 20:57:36;;;;;;;2.58;0.73;;;16.40;99.90;;;;;;12407931;28;20058;-84
2022/08/06 21:03:48;;;;;;;3.83;0.93;;;16.40;99.90;;;;;;12439339;28;20049;-84
2022/08/06 21:10:10;;;;;;;1.13;0.70;;;16.40;99.90;;;;;;12420061;28;20056;-84
2022/08/06 21:16:12;;;;;;;1.60;0.88;;;16.40;99.90;;;;;;12424646;28;20293;-84
2022/08/06 21:22:29;;;;;;;2.10;0.73;;;16.30;99.90;;;;;;12429768;28;20108;-84
2022/08/06 21:28:32;;;;;;;3.33;1.08;;;16.20;99.90;;;;;;12422888;28;20058;-84
2022/08/06 21:34:34;;;;;;;4.10;0.80;;;16.10;99.90;;;;;;12417811;28;20050;-83
2022/08/06 21:40:38;;;;;;;3.45;0.68;;;16.10;99.90;;;;;;12421030;28;20054;-84
2022/08/06 21:46:41;;;;;;;2.08;0.70;;;15.90;99.90;;;;;;12723511;23;20053;-83
2022/08/06 21:52:51;;;;;;;1.88;1.05;;;15.90;99.90;;;;;;12430289;28;20046;-84
2022/08/06 21:58:54;;;;;;;2.30;0.80;;;15.90;99.90;;;;;;12416899;28;20062;-84
2022/08/06 22:04:58;;;;;;;2.10;1.05;;;15.80;99.90;;;;;;12418398;28;20054;-83
2022/08/06 22:11:07;;;;;;;1.83;0.90;;;15.70;99.90;;;;;;12352837;23;20055;-38
2022/08/06 22:17:29;;;;;;;2.58;1.02;;;15.60;99.90;;;;;;12348526;28;20039;-38
2022/08/06 22:23:51;;;;;;;3.65;0.80;;;15.50;99.90;;;;;;12342377;28;20050;-34
2022/08/06 22:36:18;;;;;;;2.73;0.73;;;15.50;99.90;;;;;;12348979;28;20414;-38
2022/08/06 22:42:40;;;;;;;4.85;1.10;;;15.50;99.90;;;;;;12479369;23;20045;-83
2022/08/06 22:49:02;;;;;;;2.08;0.90;;;15.40;99.90;;;;;;12703035;23;20051;-84
2022/08/06 22:55:14;;;;;;;3.72;1.35;;;15.40;99.90;;;;;;12372975;28;20490;-83
2022/08/06 23:01:18;;;;;;;3.80;1.20;;;15.30;99.90;;;;;;12380063;28;20355;-84
2022/08/06 23:07:41;;;;;;;3.75;1.20;;;15.30;99.90;;;;;;12370941;28;20501;-83
2022/08/06 23:13:55;;;;;;;3.38;1.05;;;15.20;99.90;;;;;;12383137;28;20461;-84
2022/08/06 23:19:57;;;;;;;4.30;1.00;;;15.20;99.90;;;;;;12369845;28;20351;-83
2022/08/06 23:26:00;;;;;;;3.25;1.10;;;15.20;99.90;;;;;;12388409;28;20054;-84
2022/08/06 23:32:05;;;;;;;3.58;1.55;;;15.30;99.90;;;;;;12364097;28;20417;-83
2022/08/06 23:38:08;;;;;;;;;;;15.30;99.90;;;;;;12373372;28;20181;-83
2022/08/06 23:44:30;;;;;;;3.47;1.75;;;15.20;99.90;;;;;;12368153;28;19929;-83
2022/08/06 23:50:32;;;;;;;5.38;2.00;;;15.40;99.90;;;;;;12375591;28;20057;-84
2022/08/06 23:56:39;;;;;;;4.38;2.10;;;15.40;99.90;;;;;;12395938;28;20057;-84
